Saint Croix, Virgin Islands
Current Conditions -  °F | °C
As of 9:00 PM on Saturday 22 Nov 2014 (Local Time) from TUPJ Reporting Station
Scattered Clouds Scattered Clouds  
Wind Chill: 81°   Ceiling: Unl
Heat Index: 86°   Visibility: 6mi
Dew Point: 75°   Wind: 12mph
Humidity: 84%   Direction: 90°E
Pressure: 30"   Gusts: NA
Location:  17.7°N, 64.8°W
Report Text: TUPJ 230100Z 09010KT 9999 SCT018 SCT060 27/24 Q1016
Loading
Personal Weather Stations






























Interactive Weather Map New forecast layout! Learn more

10-Day Weather Forecast

Advertisements
Track Severe Weather on mobile